San Francisco, CA (94110)

1:05 PM PST on December 18, 2014 (GMT -0800)
The Mission Brings All the Girls to the Yard | Change Station
CLOSE
Current Station
Personal Weather Station
Location: San Francisco, CA
Elevation: 56 ft
Nearby Weather Stations

Elev 56 ft 37.75 °N, 122.42 °W | Updated 0 second ago

Overcast
Overcast
58.6 °F
Feels Like 58.6 °F
N
2.0
Wind Variable Wind from East
Gusts 3.0 mph

Today
High -- | Low -- °F
--% Chance of Precip.
Yesterday
High -- | Low -- °F
Precip. -- in
7:19 AM 4:53 PM
Waning Crescent, 12% visible
Pressure 30.15 in
Visibility 10.0 miles
Clouds Few 2600 ft
Mostly Cloudy 4900 ft
Dew Point 52 °F
Humidity 79%
Rainfall 0.40 in
Snow Depth Not available.
UV 1 out of 12
Pollen 3.50 out of 12
Air Quality Not available.
Flu Activity Not available.
METAR KSFO 182056Z 09003KT 10SM R28R/6000FT FEW026 BKN049 14/12 A3015 RMK AO2 SLP208 T01440117 58008

More Conditions Fewer Conditions

Pressure 30.15 in
Visibility 10.0 miles
Clouds Few 2600 ft
Mostly Cloudy 4900 ft
Dew Point 52 °F
Humidity 79%
Rainfall 0.40 in
Snow Depth Not available.
UV 1 out of 12
Pollen 3.50 out of 12
Air Quality Not available.
Flu Activity Not available.
METAR KSFO 182056Z 09003KT 10SM R28R/6000FT FEW026 BKN049 14/12 A3015 RMK AO2 SLP208 T01440117 58008

More Conditions Fewer Conditions

10-Day Weather Forecast

Almanac

Astronomy

Dec. 18, 2014 Rise Set
Actual Time
Civil Twilight
Nautical Twilight
Astronomical Twilight
Moon
Length of Visible Light
Length of Day
Tomorrow will be .
, % of the Moon is Illuminated

Today's Extremes

State Highs State Lows

Community

WunderPhotos

Upload Photos

1,778,997 photos uploaded!

WunderBlogs® & News

Nearby

Air Quality

  Air Quality AQ Index Pollutant
Not available.

Snow Depth

Station Depth Elevation

Earthquake Activity

City Distance Mag. Time & Date
Minimum magnitude displayed is 2.5.

Coastal Water Temperatures

Place Temperature

Nearby Weather Stations